sensor_id;sensor_type;location;lat;lon;timestamp;P1;durP1;ratioP1;P2;durP2;ratioP2
56285;SDS011;42191;47.562;9.686;2023-05-20T00:00:29;40.70;;;37.83;;
56285;SDS011;42191;47.562;9.686;2023-05-20T00:02:56;38.85;;;36.30;;
56285;SDS011;42191;47.562;9.686;2023-05-20T00:05:23;40.97;;;37.95;;
56285;SDS011;42191;47.562;9.686;2023-05-20T00:07:50;40.90;;;38.22;;
56285;SDS011;42191;47.562;9.686;2023-05-20T00:10:16;40.63;;;37.92;;
56285;SDS011;42191;47.562;9.686;2023-05-20T00:12:42;40.90;;;38.20;;
56285;SDS011;42191;47.562;9.686;2023-05-20T00:15:08;40.90;;;37.97;;
56285;SDS011;42191;47.562;9.686;2023-05-20T00:17:36;39.85;;;37.20;;
56285;SDS011;42191;47.562;9.686;2023-05-20T00:20:02;40.53;;;37.83;;
56285;SDS011;42191;47.562;9.686;2023-05-20T00:22:29;41.67;;;38.63;;
56285;SDS011;42191;47.562;9.686;2023-05-20T00:24:55;39.45;;;36.85;;
56285;SDS011;42191;47.562;9.686;2023-05-20T00:27:22;39.55;;;36.95;;
56285;SDS011;42191;47.562;9.686;2023-05-20T00:29:48;40.53;;;37.83;;
56285;SDS011;42191;47.562;9.686;2023-05-20T00:32:14;41.30;;;38.35;;
56285;SDS011;42191;47.562;9.686;2023-05-20T00:34:41;41.65;;;38.95;;
56285;SDS011;42191;47.562;9.686;2023-05-20T00:37:08;40.97;;;38.25;;
56285;SDS011;42191;47.562;9.686;2023-05-20T00:39:34;38.55;;;35.95;;
56285;SDS011;42191;47.562;9.686;2023-05-20T00:42:00;42.05;;;39.13;;
56285;SDS011;42191;47.562;9.686;2023-05-20T00:44:27;42.00;;;39.20;;
56285;SDS011;42191;47.562;9.686;2023-05-20T00:46:54;42.05;;;39.25;;
56285;SDS011;42191;47.562;9.686;2023-05-20T00:49:20;42.92;;;39.92;;
56285;SDS011;42191;47.562;9.686;2023-05-20T00:51:47;39.92;;;37.15;;
56285;SDS011;42191;47.562;9.686;2023-05-20T00:54:14;41.70;;;38.95;;
56285;SDS011;42191;47.562;9.686;2023-05-20T00:56:40;41.28;;;38.47;;
56285;SDS011;42191;47.562;9.686;2023-05-20T00:59:06;39.95;;;37.00;;
56285;SDS011;42191;47.562;9.686;2023-05-20T01:01:33;41.25;;;38.55;;
56285;SDS011;42191;47.562;9.686;2023-05-20T01:03:59;40.63;;;37.92;;
56285;SDS011;42191;47.562;9.686;2023-05-20T01:06:26;40.50;;;37.90;;
56285;SDS011;42191;47.562;9.686;2023-05-20T01:08:53;40.97;;;38.22;;
56285;SDS011;42191;47.562;9.686;2023-05-20T01:11:30;40.35;;;37.60;;
56285;SDS011;42191;47.562;9.686;2023-05-20T01:14:02;41.38;;;38.65;;
56285;SDS011;42191;47.562;9.686;2023-05-20T01:16:32;39.28;;;36.70;;
56285;SDS011;42191;47.562;9.686;2023-05-20T01:19:00;39.88;;;37.28;;
56285;SDS011;42191;47.562;9.686;2023-05-20T01:21:30;41.40;;;38.50;;
56285;SDS011;42191;47.562;9.686;2023-05-20T01:23:57;40.10;;;37.50;;
56285;SDS011;42191;47.562;9.686;2023-05-20T01:26:25;39.47;;;36.58;;
56285;SDS011;42191;47.562;9.686;2023-05-20T01:28:52;42.83;;;40.03;;
56285;SDS011;42191;47.562;9.686;2023-05-20T01:31:27;38.90;;;36.20;;
56285;SDS011;42191;47.562;9.686;2023-05-20T01:33:57;39.83;;;37.20;;
56285;SDS011;42191;47.562;9.686;2023-05-20T01:36:24;39.60;;;36.85;;
56285;SDS011;42191;47.562;9.686;2023-05-20T01:38:52;41.13;;;38.22;;
56285;SDS011;42191;47.562;9.686;2023-05-20T01:41:19;39.67;;;36.95;;
56285;SDS011;42191;47.562;9.686;2023-05-20T01:43:48;38.35;;;35.85;;
56285;SDS011;42191;47.562;9.686;2023-05-20T01:46:14;39.42;;;36.80;;
56285;SDS011;42191;47.562;9.686;2023-05-20T01:48:40;41.65;;;38.75;;
56285;SDS011;42191;47.562;9.686;2023-05-20T01:51:07;41.90;;;39.13;;
56285;SDS011;42191;47.562;9.686;2023-05-20T01:53:33;39.78;;;37.20;;
56285;SDS011;42191;47.562;9.686;2023-05-20T01:55:59;39.80;;;37.17;;
56285;SDS011;42191;47.562;9.686;2023-05-20T01:58:25;39.88;;;37.30;;
56285;SDS011;42191;47.562;9.686;2023-05-20T02:00:51;39.58;;;36.97;;
56285;SDS011;42191;47.562;9.686;2023-05-20T02:03:18;40.38;;;37.72;;
56285;SDS011;42191;47.562;9.686;2023-05-20T02:05:44;41.55;;;38.65;;
56285;SDS011;42191;47.562;9.686;2023-05-20T02:08:10;41.60;;;38.70;;
56285;SDS011;42191;47.562;9.686;2023-05-20T02:10:36;40.63;;;37.83;;
56285;SDS011;42191;47.562;9.686;2023-05-20T02:13:02;41.95;;;39.15;;
56285;SDS011;42191;47.562;9.686;2023-05-20T02:15:28;41.25;;;38.53;;
56285;SDS011;42191;47.562;9.686;2023-05-20T02:17:54;42.05;;;39.25;;
56285;SDS011;42191;47.562;9.686;2023-05-20T02:20:21;40.20;;;37.42;;
56285;SDS011;42191;47.562;9.686;2023-05-20T02:22:48;41.33;;;38.33;;
56285;SDS011;42191;47.562;9.686;2023-05-20T02:25:14;41.00;;;38.20;;
56285;SDS011;42191;47.562;9.686;2023-05-20T02:27:40;40.83;;;37.92;;
56285;SDS011;42191;47.562;9.686;2023-05-20T02:30:06;39.95;;;37.03;;
56285;SDS011;42191;47.562;9.686;2023-05-20T02:32:33;39.05;;;36.40;;
56285;SDS011;42191;47.562;9.686;2023-05-20T02:34:59;40.67;;;37.88;;
56285;SDS011;42191;47.562;9.686;2023-05-20T02:37:25;39.45;;;36.85;;
56285;SDS011;42191;47.562;9.686;2023-05-20T02:39:52;38.85;;;36.25;;
56285;SDS011;42191;47.562;9.686;2023-05-20T02:42:20;38.28;;;35.78;;
56285;SDS011;42191;47.562;9.686;2023-05-20T02:44:46;39.70;;;37.10;;
56285;SDS011;42191;47.562;9.686;2023-05-20T02:47:12;40.38;;;37.67;;
56285;SDS011;42191;47.562;9.686;2023-05-20T02:49:38;40.30;;;37.53;;
56285;SDS011;42191;47.562;9.686;2023-05-20T02:52:05;40.50;;;37.67;;
56285;SDS011;42191;47.562;9.686;2023-05-20T02:54:32;40.33;;;37.67;;
56285;SDS011;42191;47.562;9.686;2023-05-20T02:56:59;39.65;;;36.95;;
56285;SDS011;42191;47.562;9.686;2023-05-20T02:59:26;40.63;;;37.92;;
56285;SDS011;42191;47.562;9.686;2023-05-20T03:01:52;39.35;;;36.75;;
56285;SDS011;42191;47.562;9.686;2023-05-20T03:04:18;41.75;;;38.85;;
56285;SDS011;42191;47.562;9.686;2023-05-20T03:06:45;41.53;;;38.58;;
56285;SDS011;42191;47.562;9.686;2023-05-20T03:09:11;42.17;;;39.28;;
56285;SDS011;42191;47.562;9.686;2023-05-20T03:11:38;42.97;;;39.88;;
56285;SDS011;42191;47.562;9.686;2023-05-20T03:14:04;41.22;;;38.38;;
56285;SDS011;42191;47.562;9.686;2023-05-20T03:16:30;40.25;;;37.50;;
56285;SDS011;42191;47.562;9.686;2023-05-20T03:18:59;39.80;;;37.10;;
56285;SDS011;42191;47.562;9.686;2023-05-20T03:21:25;41.30;;;38.35;;
56285;SDS011;42191;47.562;9.686;2023-05-20T03:23:52;42.97;;;40.13;;
56285;SDS011;42191;47.562;9.686;2023-05-20T03:26:18;41.45;;;38.55;;
56285;SDS011;42191;47.562;9.686;2023-05-20T03:28:45;41.28;;;38.47;;
56285;SDS011;42191;47.562;9.686;2023-05-20T03:31:11;42.75;;;39.83;;
56285;SDS011;42191;47.562;9.686;2023-05-20T03:33:38;40.15;;;37.35;;
56285;SDS011;42191;47.562;9.686;2023-05-20T03:36:04;40.50;;;37.80;;
56285;SDS011;42191;47.562;9.686;2023-05-20T03:38:30;42.42;;;39.47;;
56285;SDS011;42191;47.562;9.686;2023-05-20T03:40:56;40.85;;;38.15;;
56285;SDS011;42191;47.562;9.686;2023-05-20T03:43:22;40.90;;;38.00;;
56285;SDS011;42191;47.562;9.686;2023-05-20T03:45:49;41.60;;;38.65;;
56285;SDS011;42191;47.562;9.686;2023-05-20T03:48:15;43.10;;;40.10;;
56285;SDS011;42191;47.562;9.686;2023-05-20T03:50:41;41.28;;;38.38;;
56285;SDS011;42191;47.562;9.686;2023-05-20T03:53:07;40.88;;;38.05;;
56285;SDS011;42191;47.562;9.686;2023-05-20T03:55:33;41.88;;;39.08;;
56285;SDS011;42191;47.562;9.686;2023-05-20T03:58:00;41.88;;;39.08;;
56285;SDS011;42191;47.562;9.686;2023-05-20T04:00:26;43.55;;;40.38;;
56285;SDS011;42191;47.562;9.686;2023-05-20T04:02:54;40.65;;;37.97;;
56285;SDS011;42191;47.562;9.686;2023-05-20T04:05:22;43.00;;;40.00;;
56285;SDS011;42191;47.562;9.686;2023-05-20T04:07:49;42.30;;;39.50;;
56285;SDS011;42191;47.562;9.686;2023-05-20T04:10:17;43.70;;;40.70;;
56285;SDS011;42191;47.562;9.686;2023-05-20T04:12:44;47.72;;;43.70;;
56285;SDS011;42191;47.562;9.686;2023-05-20T04:15:11;45.70;;;42.08;;
56285;SDS011;42191;47.562;9.686;2023-05-20T04:17:37;45.05;;;41.63;;
56285;SDS011;42191;47.562;9.686;2023-05-20T04:20:04;46.72;;;43.10;;
56285;SDS011;42191;47.562;9.686;2023-05-20T04:22:31;42.78;;;39.65;;
56285;SDS011;42191;47.562;9.686;2023-05-20T04:24:58;43.85;;;40.35;;
56285;SDS011;42191;47.562;9.686;2023-05-20T04:27:25;44.28;;;40.58;;
56285;SDS011;42191;47.562;9.686;2023-05-20T04:29:51;43.13;;;39.83;;
56285;SDS011;42191;47.562;9.686;2023-05-20T04:32:18;46.22;;;42.75;;
56285;SDS011;42191;47.562;9.686;2023-05-20T04:34:45;45.47;;;41.78;;
56285;SDS011;42191;47.562;9.686;2023-05-20T04:37:12;45.67;;;41.90;;
56285;SDS011;42191;47.562;9.686;2023-05-20T04:39:39;42.00;;;38.97;;
56285;SDS011;42191;47.562;9.686;2023-05-20T04:42:07;42.20;;;39.10;;
56285;SDS011;42191;47.562;9.686;2023-05-20T04:44:33;43.75;;;40.55;;
56285;SDS011;42191;47.562;9.686;2023-05-20T04:46:59;45.22;;;41.85;;
56285;SDS011;42191;47.562;9.686;2023-05-20T04:49:26;43.60;;;40.35;;
56285;SDS011;42191;47.562;9.686;2023-05-20T04:51:54;44.05;;;40.75;;
56285;SDS011;42191;47.562;9.686;2023-05-20T04:54:21;44.75;;;41.40;;
56285;SDS011;42191;47.562;9.686;2023-05-20T04:56:47;43.80;;;40.60;;
56285;SDS011;42191;47.562;9.686;2023-05-20T04:59:13;46.10;;;42.70;;
56285;SDS011;42191;47.562;9.686;2023-05-20T05:01:39;44.03;;;40.90;;
56285;SDS011;42191;47.562;9.686;2023-05-20T05:04:05;43.78;;;40.80;;
56285;SDS011;42191;47.562;9.686;2023-05-20T05:06:31;45.05;;;41.85;;
56285;SDS011;42191;47.562;9.686;2023-05-20T05:08:58;41.13;;;38.33;;
56285;SDS011;42191;47.562;9.686;2023-05-20T05:11:24;42.55;;;39.47;;
56285;SDS011;42191;47.562;9.686;2023-05-20T05:13:50;42.03;;;38.97;;
56285;SDS011;42191;47.562;9.686;2023-05-20T05:16:17;43.70;;;40.60;;
56285;SDS011;42191;47.562;9.686;2023-05-20T05:18:43;45.15;;;42.00;;
56285;SDS011;42191;47.562;9.686;2023-05-20T05:21:09;42.85;;;39.75;;
56285;SDS011;42191;47.562;9.686;2023-05-20T05:23:35;44.08;;;41.08;;
56285;SDS011;42191;47.562;9.686;2023-05-20T05:26:01;43.83;;;40.72;;
56285;SDS011;42191;47.562;9.686;2023-05-20T05:28:27;42.13;;;39.22;;
56285;SDS011;42191;47.562;9.686;2023-05-20T05:30:54;43.33;;;40.00;;
56285;SDS011;42191;47.562;9.686;2023-05-20T05:33:20;42.38;;;39.22;;
56285;SDS011;42191;47.562;9.686;2023-05-20T05:35:47;41.65;;;38.67;;
56285;SDS011;42191;47.562;9.686;2023-05-20T05:38:13;43.78;;;40.78;;
56285;SDS011;42191;47.562;9.686;2023-05-20T05:40:40;40.78;;;37.97;;
56285;SDS011;42191;47.562;9.686;2023-05-20T05:43:06;41.25;;;38.25;;
56285;SDS011;42191;47.562;9.686;2023-05-20T05:45:32;41.92;;;39.03;;
56285;SDS011;42191;47.562;9.686;2023-05-20T05:47:59;43.60;;;40.30;;
56285;SDS011;42191;47.562;9.686;2023-05-20T05:50:25;42.72;;;39.67;;
56285;SDS011;42191;47.562;9.686;2023-05-20T05:52:51;42.38;;;39.33;;
56285;SDS011;42191;47.562;9.686;2023-05-20T05:55:17;42.22;;;39.22;;
56285;SDS011;42191;47.562;9.686;2023-05-20T05:57:43;40.47;;;37.78;;
56285;SDS011;42191;47.562;9.686;2023-05-20T06:00:10;40.65;;;37.85;;
56285;SDS011;42191;47.562;9.686;2023-05-20T06:02:36;42.58;;;39.67;;
56285;SDS011;42191;47.562;9.686;2023-05-20T06:05:03;40.10;;;37.33;;
56285;SDS011;42191;47.562;9.686;2023-05-20T06:07:29;39.10;;;36.45;;
56285;SDS011;42191;47.562;9.686;2023-05-20T06:09:55;41.13;;;38.35;;
56285;SDS011;42191;47.562;9.686;2023-05-20T06:12:22;39.35;;;36.65;;
56285;SDS011;42191;47.562;9.686;2023-05-20T06:14:48;39.17;;;36.47;;
56285;SDS011;42191;47.562;9.686;2023-05-20T06:17:14;39.03;;;36.42;;
56285;SDS011;42191;47.562;9.686;2023-05-20T06:19:41;39.17;;;36.60;;
56285;SDS011;42191;47.562;9.686;2023-05-20T06:22:07;37.17;;;34.45;;
56285;SDS011;42191;47.562;9.686;2023-05-20T06:24:33;39.50;;;36.80;;
56285;SDS011;42191;47.562;9.686;2023-05-20T06:26:59;37.95;;;35.33;;
56285;SDS011;42191;47.562;9.686;2023-05-20T06:29:27;41.20;;;38.30;;
56285;SDS011;42191;47.562;9.686;2023-05-20T06:31:53;37.83;;;35.28;;
56285;SDS011;42191;47.562;9.686;2023-05-20T06:34:19;40.22;;;37.42;;
56285;SDS011;42191;47.562;9.686;2023-05-20T06:36:46;41.25;;;38.35;;
56285;SDS011;42191;47.562;9.686;2023-05-20T06:39:12;39.97;;;37.08;;
56285;SDS011;42191;47.562;9.686;2023-05-20T06:41:38;40.45;;;37.70;;
56285;SDS011;42191;47.562;9.686;2023-05-20T06:44:05;41.17;;;38.17;;
56285;SDS011;42191;47.562;9.686;2023-05-20T06:46:32;39.70;;;37.00;;
56285;SDS011;42191;47.562;9.686;2023-05-20T06:48:58;38.55;;;35.85;;
56285;SDS011;42191;47.562;9.686;2023-05-20T06:51:25;38.47;;;35.83;;
56285;SDS011;42191;47.562;9.686;2023-05-20T06:53:52;39.33;;;36.63;;
56285;SDS011;42191;47.562;9.686;2023-05-20T06:56:18;40.63;;;37.83;;
56285;SDS011;42191;47.562;9.686;2023-05-20T06:58:45;39.60;;;36.80;;
56285;SDS011;42191;47.562;9.686;2023-05-20T07:01:11;41.05;;;38.15;;
56285;SDS011;42191;47.562;9.686;2023-05-20T07:03:37;41.22;;;38.42;;
56285;SDS011;42191;47.562;9.686;2023-05-20T07:06:04;38.97;;;36.13;;
56285;SDS011;42191;47.562;9.686;2023-05-20T07:08:31;40.17;;;37.33;;
56285;SDS011;42191;47.562;9.686;2023-05-20T07:10:57;39.97;;;37.33;;
56285;SDS011;42191;47.562;9.686;2023-05-20T07:13:23;41.70;;;38.75;;
56285;SDS011;42191;47.562;9.686;2023-05-20T07:15:50;40.50;;;37.70;;
56285;SDS011;42191;47.562;9.686;2023-05-20T07:18:16;42.50;;;39.58;;
56285;SDS011;42191;47.562;9.686;2023-05-20T07:20:43;42.17;;;39.17;;
56285;SDS011;42191;47.562;9.686;2023-05-20T07:23:09;41.75;;;38.70;;
56285;SDS011;42191;47.562;9.686;2023-05-20T07:25:35;41.55;;;38.65;;
56285;SDS011;42191;47.562;9.686;2023-05-20T07:28:01;41.55;;;38.63;;
56285;SDS011;42191;47.562;9.686;2023-05-20T07:30:28;40.83;;;37.75;;
56285;SDS011;42191;47.562;9.686;2023-05-20T07:32:54;41.15;;;38.22;;
56285;SDS011;42191;47.562;9.686;2023-05-20T07:35:20;41.00;;;38.15;;
56285;SDS011;42191;47.562;9.686;2023-05-20T07:37:46;41.97;;;38.97;;
56285;SDS011;42191;47.562;9.686;2023-05-20T07:40:12;40.83;;;37.97;;
56285;SDS011;42191;47.562;9.686;2023-05-20T07:42:38;40.17;;;37.47;;
56285;SDS011;42191;47.562;9.686;2023-05-20T07:45:04;40.00;;;37.10;;
56285;SDS011;42191;47.562;9.686;2023-05-20T07:47:31;40.53;;;37.75;;
56285;SDS011;42191;47.562;9.686;2023-05-20T07:49:57;42.03;;;39.08;;
56285;SDS011;42191;47.562;9.686;2023-05-20T07:52:23;42.17;;;39.28;;
56285;SDS011;42191;47.562;9.686;2023-05-20T07:54:50;39.45;;;36.65;;
56285;SDS011;42191;47.562;9.686;2023-05-20T07:57:16;40.60;;;37.67;;
56285;SDS011;42191;47.562;9.686;2023-05-20T07:59:42;41.88;;;38.92;;
56285;SDS011;42191;47.562;9.686;2023-05-20T08:02:08;39.05;;;36.42;;
56285;SDS011;42191;47.562;9.686;2023-05-20T08:04:35;38.28;;;35.47;;
56285;SDS011;42191;47.562;9.686;2023-05-20T08:07:01;40.97;;;37.90;;
56285;SDS011;42191;47.562;9.686;2023-05-20T08:09:27;40.92;;;38.13;;
56285;SDS011;42191;47.562;9.686;2023-05-20T08:11:54;41.15;;;38.25;;
56285;SDS011;42191;47.562;9.686;2023-05-20T08:14:20;39.80;;;37.00;;
56285;SDS011;42191;47.562;9.686;2023-05-20T08:16:46;42.03;;;38.92;;
56285;SDS011;42191;47.562;9.686;2023-05-20T08:19:12;40.22;;;37.42;;
56285;SDS011;42191;47.562;9.686;2023-05-20T08:21:38;40.67;;;37.70;;
56285;SDS011;42191;47.562;9.686;2023-05-20T08:24:04;42.75;;;39.55;;
56285;SDS011;42191;47.562;9.686;2023-05-20T08:26:31;40.80;;;37.88;;
56285;SDS011;42191;47.562;9.686;2023-05-20T08:28:57;42.58;;;39.50;;
56285;SDS011;42191;47.562;9.686;2023-05-20T08:31:23;40.78;;;37.78;;
56285;SDS011;42191;47.562;9.686;2023-05-20T08:33:49;43.08;;;39.85;;
56285;SDS011;42191;47.562;9.686;2023-05-20T08:36:15;41.88;;;38.78;;
56285;SDS011;42191;47.562;9.686;2023-05-20T08:38:43;38.95;;;36.25;;
56285;SDS011;42191;47.562;9.686;2023-05-20T08:41:09;40.53;;;37.63;;
56285;SDS011;42191;47.562;9.686;2023-05-20T08:43:35;39.13;;;36.22;;
56285;SDS011;42191;47.562;9.686;2023-05-20T08:46:02;40.90;;;37.88;;
56285;SDS011;42191;47.562;9.686;2023-05-20T08:48:30;40.38;;;37.58;;
56285;SDS011;42191;47.562;9.686;2023-05-20T08:50:57;42.15;;;39.17;;
56285;SDS011;42191;47.562;9.686;2023-05-20T08:53:25;39.67;;;36.88;;
56285;SDS011;42191;47.562;9.686;2023-05-20T08:55:52;41.38;;;38.40;;
56285;SDS011;42191;47.562;9.686;2023-05-20T08:58:21;39.92;;;36.92;;
56285;SDS011;42191;47.562;9.686;2023-05-20T09:00:49;39.67;;;36.85;;
56285;SDS011;42191;47.562;9.686;2023-05-20T09:03:16;41.42;;;38.53;;
56285;SDS011;42191;47.562;9.686;2023-05-20T09:05:44;40.65;;;37.67;;
56285;SDS011;42191;47.562;9.686;2023-05-20T09:08:11;39.38;;;36.55;;
56285;SDS011;42191;47.562;9.686;2023-05-20T09:10:38;39.80;;;36.97;;
56285;SDS011;42191;47.562;9.686;2023-05-20T09:13:05;40.38;;;37.47;;
56285;SDS011;42191;47.562;9.686;2023-05-20T09:15:33;38.03;;;35.33;;
56285;SDS011;42191;47.562;9.686;2023-05-20T09:18:00;38.00;;;35.20;;
56285;SDS011;42191;47.562;9.686;2023-05-20T09:20:27;38.03;;;35.33;;
56285;SDS011;42191;47.562;9.686;2023-05-20T09:22:57;39.30;;;36.60;;
56285;SDS011;42191;47.562;9.686;2023-05-20T09:25:28;40.47;;;37.55;;
56285;SDS011;42191;47.562;9.686;2023-05-20T09:27:54;38.55;;;35.78;;
56285;SDS011;42191;47.562;9.686;2023-05-20T09:30:21;39.05;;;36.38;;
56285;SDS011;42191;47.562;9.686;2023-05-20T09:35:20;40.20;;;37.40;;
56285;SDS011;42191;47.562;9.686;2023-05-20T09:37:47;40.33;;;37.42;;
56285;SDS011;42191;47.562;9.686;2023-05-20T09:42:55;37.67;;;34.78;;
56285;SDS011;42191;47.562;9.686;2023-05-20T09:45:25;39.30;;;36.47;;
56285;SDS011;42191;47.562;9.686;2023-05-20T09:47:52;40.17;;;37.28;;
56285;SDS011;42191;47.562;9.686;2023-05-20T09:50:20;39.10;;;36.30;;
56285;SDS011;42191;47.562;9.686;2023-05-20T09:52:47;40.22;;;37.22;;
56285;SDS011;42191;47.562;9.686;2023-05-20T09:55:18;38.03;;;35.17;;
56285;SDS011;42191;47.562;9.686;2023-05-20T09:57:45;39.67;;;36.80;;
56285;SDS011;42191;47.562;9.686;2023-05-20T10:00:12;39.22;;;36.33;;
56285;SDS011;42191;47.562;9.686;2023-05-20T10:02:42;38.53;;;35.72;;
56285;SDS011;42191;47.562;9.686;2023-05-20T10:05:13;37.50;;;34.80;;
56285;SDS011;42191;47.562;9.686;2023-05-20T10:08:13;37.13;;;34.58;;
56285;SDS011;42191;47.562;9.686;2023-05-20T10:22:08;35.30;;;32.75;;
56285;SDS011;42191;47.562;9.686;2023-05-20T10:27:06;35.78;;;33.35;;
56285;SDS011;42191;47.562;9.686;2023-05-20T10:32:25;35.47;;;33.00;;
56285;SDS011;42191;47.562;9.686;2023-05-20T10:34:59;35.75;;;33.15;;
56285;SDS011;42191;47.562;9.686;2023-05-20T10:37:30;34.00;;;31.70;;
56285;SDS011;42191;47.562;9.686;2023-05-20T10:40:05;37.67;;;35.08;;
56285;SDS011;42191;47.562;9.686;2023-05-20T10:42:31;36.15;;;33.65;;
56285;SDS011;42191;47.562;9.686;2023-05-20T10:44:57;35.97;;;33.40;;
56285;SDS011;42191;47.562;9.686;2023-05-20T10:47:23;36.90;;;34.30;;
56285;SDS011;42191;47.562;9.686;2023-05-20T10:49:50;35.80;;;33.30;;
56285;SDS011;42191;47.562;9.686;2023-05-20T10:52:16;36.72;;;34.13;;
56285;SDS011;42191;47.562;9.686;2023-05-20T10:54:45;34.92;;;32.53;;
56285;SDS011;42191;47.562;9.686;2023-05-20T10:57:12;36.25;;;33.72;;
56285;SDS011;42191;47.562;9.686;2023-05-20T10:59:39;35.08;;;32.55;;
56285;SDS011;42191;47.562;9.686;2023-05-20T11:02:05;36.90;;;34.30;;
56285;SDS011;42191;47.562;9.686;2023-05-20T11:04:34;37.78;;;35.17;;
56285;SDS011;42191;47.562;9.686;2023-05-20T11:07:01;35.88;;;33.38;;
56285;SDS011;42191;47.562;9.686;2023-05-20T11:09:27;37.80;;;35.10;;
56285;SDS011;42191;47.562;9.686;2023-05-20T11:11:55;35.47;;;33.00;;
56285;SDS011;42191;47.562;9.686;2023-05-20T11:14:22;35.97;;;33.38;;
56285;SDS011;42191;47.562;9.686;2023-05-20T11:16:51;37.33;;;34.58;;
56285;SDS011;42191;47.562;9.686;2023-05-20T11:19:20;36.40;;;33.92;;
56285;SDS011;42191;47.562;9.686;2023-05-20T11:21:46;37.35;;;34.67;;
56285;SDS011;42191;47.562;9.686;2023-05-20T11:24:16;36.83;;;34.22;;
56285;SDS011;42191;47.562;9.686;2023-05-20T11:26:51;35.40;;;32.75;;
56285;SDS011;42191;47.562;9.686;2023-05-20T11:29:21;36.00;;;33.30;;
56285;SDS011;42191;47.562;9.686;2023-05-20T11:31:50;36.08;;;33.53;;
56285;SDS011;42191;47.562;9.686;2023-05-20T11:34:20;37.13;;;34.20;;
56285;SDS011;42191;47.562;9.686;2023-05-20T11:36:46;34.65;;;32.10;;
56285;SDS011;42191;47.562;9.686;2023-05-20T11:39:15;35.80;;;32.78;;
56285;SDS011;42191;47.562;9.686;2023-05-20T11:41:41;36.75;;;34.03;;
56285;SDS011;42191;47.562;9.686;2023-05-20T11:44:11;36.28;;;33.70;;
56285;SDS011;42191;47.562;9.686;2023-05-20T11:46:44;35.53;;;33.03;;
56285;SDS011;42191;47.562;9.686;2023-05-20T11:49:14;35.05;;;32.65;;
56285;SDS011;42191;47.562;9.686;2023-05-20T11:51:44;34.50;;;32.10;;
56285;SDS011;42191;47.562;9.686;2023-05-20T11:54:10;35.03;;;32.63;;
56285;SDS011;42191;47.562;9.686;2023-05-20T11:56:36;35.47;;;33.03;;
56285;SDS011;42191;47.562;9.686;2023-05-20T11:59:03;35.95;;;33.35;;
56285;SDS011;42191;47.562;9.686;2023-05-20T12:01:31;35.88;;;33.38;;
56285;SDS011;42191;47.562;9.686;2023-05-20T12:04:01;35.17;;;32.78;;
56285;SDS011;42191;47.562;9.686;2023-05-20T12:06:31;35.92;;;33.42;;
56285;SDS011;42191;47.562;9.686;2023-05-20T12:09:00;34.58;;;32.22;;
56285;SDS011;42191;47.562;9.686;2023-05-20T12:11:33;35.33;;;32.92;;
56285;SDS011;42191;47.562;9.686;2023-05-20T12:14:01;35.85;;;33.38;;
56285;SDS011;42191;47.562;9.686;2023-05-20T12:16:29;34.08;;;31.77;;
56285;SDS011;42191;47.562;9.686;2023-05-20T12:18:56;35.47;;;32.78;;
56285;SDS011;42191;47.562;9.686;2023-05-20T12:21:22;36.17;;;33.58;;
56285;SDS011;42191;47.562;9.686;2023-05-20T12:23:48;34.38;;;31.73;;
56285;SDS011;42191;47.562;9.686;2023-05-20T12:26:15;33.83;;;31.23;;
56285;SDS011;42191;47.562;9.686;2023-05-20T12:28:41;35.30;;;32.72;;
56285;SDS011;42191;47.562;9.686;2023-05-20T12:31:07;33.58;;;31.27;;
56285;SDS011;42191;47.562;9.686;2023-05-20T12:33:33;35.70;;;33.30;;
56285;SDS011;42191;47.562;9.686;2023-05-20T12:35:59;35.10;;;32.58;;
56285;SDS011;42191;47.562;9.686;2023-05-20T12:38:25;34.60;;;32.15;;
56285;SDS011;42191;47.562;9.686;2023-05-20T12:40:52;33.50;;;31.17;;
56285;SDS011;42191;47.562;9.686;2023-05-20T12:43:18;35.10;;;32.70;;
56285;SDS011;42191;47.562;9.686;2023-05-20T12:45:44;35.47;;;32.97;;
56285;SDS011;42191;47.562;9.686;2023-05-20T12:48:10;33.78;;;31.48;;
56285;SDS011;42191;47.562;9.686;2023-05-20T12:50:36;35.42;;;32.83;;
56285;SDS011;42191;47.562;9.686;2023-05-20T12:53:03;34.65;;;32.35;;
56285;SDS011;42191;47.562;9.686;2023-05-20T12:55:29;34.22;;;31.83;;
56285;SDS011;42191;47.562;9.686;2023-05-20T12:57:55;34.88;;;32.58;;
56285;SDS011;42191;47.562;9.686;2023-05-20T13:00:21;34.28;;;31.67;;
56285;SDS011;42191;47.562;9.686;2023-05-20T13:02:47;34.03;;;31.63;;
56285;SDS011;42191;47.562;9.686;2023-05-20T13:05:14;33.63;;;31.33;;
56285;SDS011;42191;47.562;9.686;2023-05-20T13:07:40;34.88;;;32.45;;
56285;SDS011;42191;47.562;9.686;2023-05-20T13:10:06;31.13;;;28.67;;
56285;SDS011;42191;47.562;9.686;2023-05-20T13:12:34;31.42;;;29.33;;
56285;SDS011;42191;47.562;9.686;2023-05-20T13:15:01;31.25;;;29.15;;
56285;SDS011;42191;47.562;9.686;2023-05-20T13:17:27;30.73;;;28.50;;
56285;SDS011;42191;47.562;9.686;2023-05-20T13:19:54;29.95;;;27.95;;
56285;SDS011;42191;47.562;9.686;2023-05-20T13:22:20;31.15;;;28.95;;
56285;SDS011;42191;47.562;9.686;2023-05-20T13:24:46;29.48;;;27.48;;
56285;SDS011;42191;47.562;9.686;2023-05-20T13:27:12;30.65;;;28.45;;
56285;SDS011;42191;47.562;9.686;2023-05-20T13:29:39;30.45;;;28.35;;
56285;SDS011;42191;47.562;9.686;2023-05-20T13:32:05;29.67;;;27.58;;
56285;SDS011;42191;47.562;9.686;2023-05-20T13:34:32;29.45;;;27.45;;
56285;SDS011;42191;47.562;9.686;2023-05-20T13:36:58;28.85;;;26.88;;
56285;SDS011;42191;47.562;9.686;2023-05-20T13:39:24;30.30;;;28.10;;
56285;SDS011;42191;47.562;9.686;2023-05-20T13:41:51;29.05;;;26.85;;
56285;SDS011;42191;47.562;9.686;2023-05-20T13:44:18;29.27;;;27.17;;
56285;SDS011;42191;47.562;9.686;2023-05-20T13:46:45;29.40;;;27.30;;
56285;SDS011;42191;47.562;9.686;2023-05-20T13:49:11;27.73;;;25.92;;
56285;SDS011;42191;47.562;9.686;2023-05-20T13:51:37;29.00;;;27.10;;
56285;SDS011;42191;47.562;9.686;2023-05-20T13:54:03;29.23;;;27.10;;
56285;SDS011;42191;47.562;9.686;2023-05-20T13:56:30;28.40;;;26.52;;
56285;SDS011;42191;47.562;9.686;2023-05-20T13:58:56;29.83;;;27.73;;
56285;SDS011;42191;47.562;9.686;2023-05-20T14:01:22;30.08;;;27.92;;
56285;SDS011;42191;47.562;9.686;2023-05-20T14:03:49;30.23;;;28.13;;
56285;SDS011;42191;47.562;9.686;2023-05-20T14:06:15;30.25;;;28.20;;
56285;SDS011;42191;47.562;9.686;2023-05-20T14:08:43;30.25;;;28.15;;
56285;SDS011;42191;47.562;9.686;2023-05-20T14:11:10;30.17;;;28.13;;
56285;SDS011;42191;47.562;9.686;2023-05-20T14:13:36;29.88;;;27.88;;
56285;SDS011;42191;47.562;9.686;2023-05-20T14:16:02;31.08;;;28.98;;
56285;SDS011;42191;47.562;9.686;2023-05-20T14:18:28;30.55;;;28.45;;
56285;SDS011;42191;47.562;9.686;2023-05-20T14:20:54;30.38;;;28.27;;
56285;SDS011;42191;47.562;9.686;2023-05-20T14:23:21;30.23;;;28.13;;
56285;SDS011;42191;47.562;9.686;2023-05-20T14:25:47;29.92;;;27.65;;
56285;SDS011;42191;47.562;9.686;2023-05-20T14:28:13;29.73;;;27.63;;
56285;SDS011;42191;47.562;9.686;2023-05-20T14:30:39;28.77;;;26.88;;
56285;SDS011;42191;47.562;9.686;2023-05-20T14:33:05;28.85;;;26.75;;
56285;SDS011;42191;47.562;9.686;2023-05-20T14:35:31;29.52;;;27.52;;
56285;SDS011;42191;47.562;9.686;2023-05-20T14:37:58;30.20;;;28.20;;
56285;SDS011;42191;47.562;9.686;2023-05-20T14:40:24;30.90;;;28.60;;